Time;durP1;ratioP1;P1;durP2;ratioP2;P2;SDS_P1;SDS_P2;PMS_P1;PMS_P2;Temp;Humidity;BMP_temperature;BMP_pressure;BME280_temperature;BME280_humidity;BME280_pressure;Samples;Min_cycle;Max_cycle;Signal;HPM_P1;HPM_P2
2023/09/14 00:01:54;;;;;;;9.43;2.97;;;;;;;;;;5054865;28;20068;-55
2023/09/14 00:04:21;;;;;;;14.45;2.60;;;;;;;;;;5054871;28;20108;-54
2023/09/14 00:06:46;;;;;;;6.10;2.53;;;;;;;;;;5054482;28;20021;-52
2023/09/14 00:09:12;;;;;;;5.95;2.40;;;;;;;;;;5054653;28;20032;-52
2023/09/14 00:11:37;;;;;;;7.32;2.78;;;;;;;;;;5052798;28;20033;-55
2023/09/14 00:14:03;;;;;;;9.15;2.53;;;;;;;;;;5054957;28;20069;-54
2023/09/14 00:16:28;;;;;;;6.50;2.60;;;;;;;;;;5053889;28;20057;-55
2023/09/14 00:18:54;;;;;;;9.65;2.70;;;;;;;;;;5054248;28;20457;-52
2023/09/14 00:21:23;;;;;;;8.90;2.40;;;;;;;;;;5054601;28;20029;-56
2023/09/14 00:23:48;;;;;;;7.38;2.60;;;;;;;;;;5054410;28;20109;-55
2023/09/14 00:26:15;;;;;;;6.70;2.30;;;;;;;;;;5054337;28;20120;-56
2023/09/14 00:28:40;;;;;;;10.48;2.72;;;;;;;;;;5052082;28;20025;-53
2023/09/14 00:31:08;;;;;;;9.07;2.90;;;;;;;;;;5054436;28;20090;-56
2023/09/14 00:33:33;;;;;;;10.52;3.00;;;;;;;;;;5053513;28;20036;-56
2023/09/14 00:35:59;;;;;;;7.85;2.70;;;;;;;;;;5053549;28;20032;-55
2023/09/14 00:38:25;;;;;;;9.43;2.50;;;;;;;;;;5054027;28;20499;-57
2023/09/14 00:40:51;;;;;;;7.93;2.40;;;;;;;;;;5053508;28;20039;-56
2023/09/14 00:43:17;;;;;;;9.20;2.78;;;;;;;;;;5054155;28;20351;-57
2023/09/14 00:45:43;;;;;;;6.38;2.28;;;;;;;;;;5053433;28;20519;-55
2023/09/14 00:48:08;;;;;;;11.13;2.65;;;;;;;;;;5054259;28;20425;-56
2023/09/14 00:50:34;;;;;;;7.95;2.92;;;;;;;;;;5053287;28;20534;-56
2023/09/14 00:53:04;;;;;;;10.60;2.97;;;;;;;;;;5053910;28;20035;-54
2023/09/14 00:55:31;;;;;;;8.63;2.50;;;;;;;;;;5054131;28;20394;-57
2023/09/14 00:58:00;;;;;;;9.80;2.78;;;;;;;;;;5053144;28;20453;-54
2023/09/14 01:00:26;;;;;;;8.65;2.75;;;;;;;;;;5053373;28;20100;-58
2023/09/14 01:02:54;;;;;;;7.60;2.88;;;;;;;;;;5053689;28;20037;-56
2023/09/14 01:05:21;;;;;;;7.95;2.50;;;;;;;;;;5053490;28;20024;-56
2023/09/14 01:07:47;;;;;;;6.57;2.60;;;;;;;;;;5053303;28;20409;-56
2023/09/14 01:10:15;;;;;;;7.93;2.38;;;;;;;;;;5051926;28;20051;-54
2023/09/14 01:12:42;;;;;;;8.00;2.70;;;;;;;;;;5051585;28;20405;-55
2023/09/14 01:15:10;;;;;;;8.80;2.53;;;;;;;;;;5053415;28;20036;-55
2023/09/14 01:18:00;;;;;;;9.15;2.70;;;;;;;;;;5052366;28;20052;-56
2023/09/14 01:20:48;;;;;;;11.18;2.70;;;;;;;;;;5053300;28;20043;-54
2023/09/14 01:23:28;;;;;;;10.23;2.70;;;;;;;;;;5053217;28;20048;-56
2023/09/14 01:25:55;;;;;;;9.68;2.80;;;;;;;;;;5053344;28;20078;-54
2023/09/14 01:28:20;;;;;;;6.68;2.30;;;;;;;;;;5053295;28;20043;-56
2023/09/14 01:30:46;;;;;;;8.80;2.72;;;;;;;;;;5052460;28;20025;-55
2023/09/14 01:33:14;;;;;;;6.05;2.72;;;;;;;;;;5051940;28;20113;-56
2023/09/14 01:36:14;;;;;;;7.85;2.90;;;;;;;;;;5052528;28;20106;-56
2023/09/14 01:38:42;;;;;;;8.05;2.60;;;;;;;;;;5043094;28;20049;-55
2023/09/14 01:41:08;;;;;;;12.55;2.70;;;;;;;;;;5052852;28;20045;-52
2023/09/14 01:43:38;;;;;;;6.80;2.95;;;;;;;;;;5052226;28;20033;-56
2023/09/14 01:46:04;;;;;;;10.63;2.70;;;;;;;;;;5052664;28;20039;-56
2023/09/14 01:48:29;;;;;;;13.93;2.80;;;;;;;;;;5051966;28;20049;-57
2023/09/14 01:50:55;;;;;;;11.98;3.50;;;;;;;;;;5052532;28;20065;-54
2023/09/14 01:53:20;;;;;;;12.25;3.10;;;;;;;;;;5052740;28;20037;-54
2023/09/14 01:55:45;;;;;;;10.80;3.10;;;;;;;;;;5051917;28;20075;-55
2023/09/14 01:58:12;;;;;;;10.68;3.05;;;;;;;;;;5052682;28;20119;-57
2023/09/14 02:00:37;;;;;;;8.93;2.90;;;;;;;;;;5051943;28;20120;-54
2023/09/14 02:03:03;;;;;;;7.45;3.05;;;;;;;;;;5052651;28;20120;-55
2023/09/14 02:05:29;;;;;;;9.82;3.30;;;;;;;;;;5052153;28;20104;-53
2023/09/14 02:07:54;;;;;;;10.18;2.90;;;;;;;;;;5052304;28;20036;-54
2023/09/14 02:10:22;;;;;;;9.48;2.90;;;;;;;;;;5052399;28;20025;-54
2023/09/14 02:12:48;;;;;;;9.20;2.80;;;;;;;;;;5051792;28;20067;-55
2023/09/14 02:15:14;;;;;;;10.48;3.30;;;;;;;;;;5052501;28;20040;-57
2023/09/14 02:17:39;;;;;;;8.73;3.20;;;;;;;;;;5051322;28;20053;-56
2023/09/14 02:20:07;;;;;;;10.05;2.97;;;;;;;;;;5052191;28;20029;-56
2023/09/14 02:22:33;;;;;;;10.43;3.25;;;;;;;;;;5051795;28;20033;-54
2023/09/14 02:24:58;;;;;;;12.43;3.63;;;;;;;;;;5051803;28;20040;-52
2023/09/14 02:27:24;;;;;;;7.75;3.33;;;;;;;;;;5052273;28;20033;-53
2023/09/14 02:29:53;;;;;;;14.40;3.28;;;;;;;;;;5051528;28;20411;-54
2023/09/14 02:32:19;;;;;;;11.10;3.60;;;;;;;;;;5050871;28;20047;-55
2023/09/14 02:34:44;;;;;;;9.85;3.80;;;;;;;;;;5051409;28;20037;-54
2023/09/14 02:37:09;;;;;;;7.93;3.42;;;;;;;;;;5051883;28;20059;-54
2023/09/14 02:39:35;;;;;;;9.73;3.25;;;;;;;;;;5051323;28;20029;-52
2023/09/14 02:42:00;;;;;;;11.65;3.25;;;;;;;;;;5052302;28;20449;-52
2023/09/14 02:44:25;;;;;;;14.30;3.80;;;;;;;;;;5052312;28;20029;-57
2023/09/14 02:46:51;;;;;;;7.65;3.40;;;;;;;;;;5052261;28;20468;-57
2023/09/14 02:49:16;;;;;;;11.18;3.35;;;;;;;;;;5051604;28;20074;-57
2023/09/14 02:51:42;;;;;;;6.82;2.97;;;;;;;;;;5050676;28;20025;-56
2023/09/14 02:54:07;;;;;;;9.07;3.00;;;;;;;;;;5051623;28;20052;-54
2023/09/14 02:56:32;;;;;;;11.60;3.47;;;;;;;;;;5051223;28;20029;-58
2023/09/14 02:58:58;;;;;;;7.45;2.83;;;;;;;;;;5055234;28;20102;-53
2023/09/14 03:01:23;;;;;;;9.43;2.80;;;;;;;;;;5054649;28;20025;-54
2023/09/14 03:03:48;;;;;;;10.55;2.88;;;;;;;;;;5055356;28;20462;-51
2023/09/14 03:06:14;;;;;;;9.38;3.03;;;;;;;;;;5055839;28;20032;-55
2023/09/14 03:08:39;;;;;;;9.32;3.30;;;;;;;;;;5055104;28;20083;-53
2023/09/14 03:11:05;;;;;;;7.57;3.05;;;;;;;;;;5055567;28;20108;-55
2023/09/14 03:13:31;;;;;;;8.77;2.97;;;;;;;;;;5055716;28;20036;-52
2023/09/14 03:15:59;;;;;;;10.23;3.03;;;;;;;;;;5053366;28;20044;-57
2023/09/14 03:18:25;;;;;;;11.23;3.72;;;;;;;;;;5055473;28;20021;-56
2023/09/14 03:20:52;;;;;;;11.85;3.25;;;;;;;;;;5054663;28;20064;-56
2023/09/14 03:23:17;;;;;;;9.30;2.90;;;;;;;;;;5055269;28;20068;-56
2023/09/14 03:25:43;;;;;;;7.03;2.63;;;;;;;;;;5054756;28;20435;-56
2023/09/14 03:28:09;;;;;;;6.78;2.60;;;;;;;;;;5055680;28;20381;-57
2023/09/14 03:30:35;;;;;;;9.15;3.38;;;;;;;;;;5054921;28;20385;-58
2023/09/14 03:33:00;;;;;;;6.65;2.60;;;;;;;;;;5055362;28;20473;-56
2023/09/14 03:35:26;;;;;;;8.93;3.00;;;;;;;;;;5055025;28;20064;-56
2023/09/14 03:37:51;;;;;;;7.43;2.80;;;;;;;;;;5054389;28;20104;-57
2023/09/14 03:40:17;;;;;;;6.32;2.80;;;;;;;;;;5055091;28;20029;-55
2023/09/14 03:42:42;;;;;;;8.20;2.63;;;;;;;;;;5054626;28;20032;-56
2023/09/14 03:45:08;;;;;;;6.40;2.63;;;;;;;;;;5055201;28;20036;-55
2023/09/14 03:47:34;;;;;;;7.03;3.10;;;;;;;;;;5055212;28;20100;-56
2023/09/14 03:49:59;;;;;;;8.65;2.88;;;;;;;;;;5054482;28;20048;-55
2023/09/14 03:52:25;;;;;;;8.27;3.00;;;;;;;;;;5054732;28;20033;-57
2023/09/14 03:54:50;;;;;;;9.20;3.30;;;;;;;;;;5054464;28;20114;-51
2023/09/14 03:57:16;;;;;;;10.43;3.10;;;;;;;;;;5055079;28;20449;-53
2023/09/14 03:59:42;;;;;;;9.82;3.03;;;;;;;;;;5054381;28;20036;-54
2023/09/14 04:02:09;;;;;;;7.82;3.15;;;;;;;;;;5054808;28;20358;-56
2023/09/14 04:04:34;;;;;;;7.80;3.30;;;;;;;;;;5054941;28;20068;-54
2023/09/14 04:07:00;;;;;;;6.45;2.72;;;;;;;;;;5054032;28;20488;-54
2023/09/14 04:09:29;;;;;;;11.70;3.13;;;;;;;;;;5053553;28;20021;-55
2023/09/14 04:11:55;;;;;;;11.88;3.50;;;;;;;;;;5054142;28;20186;-56
2023/09/14 04:14:20;;;;;;;9.20;2.90;;;;;;;;;;5054855;28;20025;-55
2023/09/14 04:16:47;;;;;;;8.77;2.90;;;;;;;;;;5053781;28;20482;-57
2023/09/14 04:19:13;;;;;;;9.13;3.08;;;;;;;;;;5053458;28;20057;-57
2023/09/14 04:21:40;;;;;;;9.68;3.20;;;;;;;;;;5053994;28;20075;-56
2023/09/14 04:24:06;;;;;;;9.90;2.88;;;;;;;;;;5054692;28;20053;-57
2023/09/14 04:26:31;;;;;;;6.40;2.78;;;;;;;;;;5054643;28;20052;-54
2023/09/14 04:28:57;;;;;;;8.82;3.08;;;;;;;;;;5053967;28;20188;-54
2023/09/14 04:31:22;;;;;;;11.07;3.00;;;;;;;;;;5054281;28;20067;-51
2023/09/14 04:33:48;;;;;;;7.32;2.92;;;;;;;;;;5054179;28;20033;-57
2023/09/14 04:36:13;;;;;;;7.00;2.85;;;;;;;;;;5055733;28;20033;-54
2023/09/14 04:38:38;;;;;;;7.30;2.75;;;;;;;;;;5053557;28;20028;-57
2023/09/14 04:41:04;;;;;;;9.20;3.20;;;;;;;;;;5054290;28;20110;-55
2023/09/14 04:43:32;;;;;;;9.52;3.45;;;;;;;;;;5054340;28;20025;-52
2023/09/14 04:46:01;;;;;;;10.88;3.30;;;;;;;;;;5053508;28;20037;-57
2023/09/14 04:48:27;;;;;;;8.57;2.75;;;;;;;;;;5054145;28;20028;-56
2023/09/14 04:50:55;;;;;;;11.55;3.00;;;;;;;;;;5053364;28;20032;-57
2023/09/14 04:53:20;;;;;;;7.88;3.22;;;;;;;;;;5053797;28;20448;-57
2023/09/14 04:55:46;;;;;;;10.23;3.10;;;;;;;;;;5053438;28;20120;-56
2023/09/14 04:58:11;;;;;;;9.20;3.03;;;;;;;;;;5054052;28;20025;-57
2023/09/14 05:00:37;;;;;;;12.05;3.10;;;;;;;;;;5053495;28;20048;-56
2023/09/14 05:03:04;;;;;;;9.80;3.03;;;;;;;;;;5052892;28;20397;-56
2023/09/14 05:05:32;;;;;;;9.50;3.33;;;;;;;;;;5053556;28;20025;-57
2023/09/14 05:08:00;;;;;;;10.68;3.17;;;;;;;;;;5052792;28;20472;-55
2023/09/14 05:10:26;;;;;;;7.18;3.40;;;;;;;;;;5053676;28;20039;-55
2023/09/14 05:12:52;;;;;;;10.63;3.40;;;;;;;;;;5052494;28;20123;-53
2023/09/14 05:15:18;;;;;;;10.32;3.60;;;;;;;;;;5053183;28;20425;-56
2023/09/14 05:17:44;;;;;;;10.73;3.45;;;;;;;;;;5052438;28;20533;-55
2023/09/14 05:20:11;;;;;;;7.90;3.30;;;;;;;;;;5052362;28;20056;-57
2023/09/14 05:22:38;;;;;;;12.90;3.65;;;;;;;;;;5052564;28;20033;-56
2023/09/14 05:25:04;;;;;;;8.43;3.33;;;;;;;;;;5052448;28;20029;-56
2023/09/14 05:27:38;;;;;;;11.30;3.05;;;;;;;;;;5053318;28;20040;-57
2023/09/14 05:30:11;;;;;;;9.93;3.20;;;;;;;;;;5052823;28;20390;-57
2023/09/14 05:32:37;;;;;;;11.57;4.05;;;;;;;;;;5053015;28;20036;-57
2023/09/14 05:35:04;;;;;;;7.43;3.25;;;;;;;;;;5052611;28;20484;-57
2023/09/14 05:37:29;;;;;;;7.82;3.60;;;;;;;;;;5053188;28;20046;-55
2023/09/14 05:39:55;;;;;;;8.90;3.58;;;;;;;;;;5052487;28;20116;-57
2023/09/14 05:42:22;;;;;;;9.18;3.63;;;;;;;;;;5052930;28;20470;-55
2023/09/14 05:44:50;;;;;;;6.30;3.35;;;;;;;;;;5052372;28;20581;-53
2023/09/14 05:47:16;;;;;;;10.80;3.60;;;;;;;;;;5052924;28;20166;-55
2023/09/14 05:49:42;;;;;;;9.10;3.67;;;;;;;;;;5052660;28;20033;-55
2023/09/14 05:52:08;;;;;;;13.52;4.13;;;;;;;;;;5052653;28;20123;-55
2023/09/14 05:54:36;;;;;;;12.07;3.90;;;;;;;;;;5053160;28;20104;-55
2023/09/14 05:57:01;;;;;;;9.75;3.55;;;;;;;;;;5051914;28;20083;-53
2023/09/14 05:59:27;;;;;;;8.32;3.30;;;;;;;;;;5052732;28;20397;-56
2023/09/14 06:01:52;;;;;;;8.20;3.50;;;;;;;;;;5051643;28;20445;-54
2023/09/14 06:04:18;;;;;;;11.10;3.50;;;;;;;;;;5052561;28;20028;-54
2023/09/14 06:06:43;;;;;;;6.97;3.33;;;;;;;;;;5052599;28;20029;-55
2023/09/14 06:09:09;;;;;;;8.98;4.07;;;;;;;;;;5052691;28;20035;-52
2023/09/14 06:11:34;;;;;;;7.47;3.65;;;;;;;;;;5052503;28;20033;-54
2023/09/14 06:14:00;;;;;;;11.82;3.60;;;;;;;;;;5051944;28;20070;-55
2023/09/14 06:16:26;;;;;;;11.73;3.85;;;;;;;;;;5052206;28;20373;-54
2023/09/14 06:18:52;;;;;;;9.55;3.88;;;;;;;;;;5051816;28;20025;-54
2023/09/14 06:21:18;;;;;;;10.23;3.65;;;;;;;;;;5052672;28;20067;-52
2023/09/14 06:23:43;;;;;;;7.38;3.78;;;;;;;;;;5052840;28;20036;-56
2023/09/14 06:26:09;;;;;;;10.82;3.55;;;;;;;;;;5052890;28;20033;-54
2023/09/14 06:28:35;;;;;;;9.43;3.75;;;;;;;;;;5052609;28;20044;-53
2023/09/14 06:31:01;;;;;;;12.38;3.70;;;;;;;;;;5052001;28;20033;-57
2023/09/14 06:33:26;;;;;;;9.63;3.30;;;;;;;;;;5051360;28;20037;-57
2023/09/14 06:35:52;;;;;;;11.52;4.07;;;;;;;;;;5051631;28;20033;-55
2023/09/14 06:38:17;;;;;;;9.90;3.65;;;;;;;;;;5051932;28;20025;-56
2023/09/14 06:40:43;;;;;;;9.18;3.40;;;;;;;;;;5052080;28;20476;-56
2023/09/14 06:43:08;;;;;;;11.80;3.95;;;;;;;;;;5051360;28;20067;-54
2023/09/14 06:45:33;;;;;;;9.18;3.60;;;;;;;;;;5052045;28;20021;-54
2023/09/14 06:48:00;;;;;;;10.88;3.90;;;;;;;;;;5051144;28;20029;-53
2023/09/14 06:50:25;;;;;;;10.05;3.42;;;;;;;;;;5051754;28;20397;-55
2023/09/14 06:52:51;;;;;;;9.43;4.00;;;;;;;;;;5051295;28;20029;-57
2023/09/14 06:55:16;;;;;;;12.68;3.92;;;;;;;;;;5051713;28;20033;-56
2023/09/14 06:57:42;;;;;;;11.20;3.80;;;;;;;;;;5052039;28;20381;-56
2023/09/14 07:00:14;;;;;;;9.27;3.47;;;;;;;;;;5050032;28;20032;-56
2023/09/14 07:02:40;;;;;;;8.52;3.42;;;;;;;;;;5051618;28;20084;-56
2023/09/14 07:05:06;;;;;;;9.52;3.47;;;;;;;;;;5051185;28;20082;-56
2023/09/14 07:07:31;;;;;;;10.43;3.58;;;;;;;;;;5051747;28;20037;-56
2023/09/14 07:09:56;;;;;;;8.30;3.50;;;;;;;;;;5051266;28;20033;-55
2023/09/14 07:12:22;;;;;;;12.23;3.92;;;;;;;;;;5051640;28;20032;-57
2023/09/14 07:14:48;;;;;;;9.05;3.53;;;;;;;;;;5050363;28;20056;-60
2023/09/14 07:17:13;;;;;;;6.82;3.13;;;;;;;;;;5050279;28;20049;-56
2023/09/14 07:19:39;;;;;;;9.35;3.70;;;;;;;;;;5051927;28;20052;-56
2023/09/14 07:22:04;;;;;;;8.48;3.40;;;;;;;;;;5050821;28;20048;-54
2023/09/14 07:24:32;;;;;;;10.07;3.67;;;;;;;;;;5050416;28;20070;-55
2023/09/14 07:26:58;;;;;;;9.52;3.45;;;;;;;;;;5050995;28;20036;-55
2023/09/14 07:29:24;;;;;;;6.78;3.20;;;;;;;;;;5051392;28;20025;-57
2023/09/14 07:31:50;;;;;;;10.07;3.20;;;;;;;;;;5051356;28;20108;-56
2023/09/14 07:34:15;;;;;;;7.57;3.30;;;;;;;;;;5050842;28;20029;-56
2023/09/14 07:36:42;;;;;;;8.02;3.63;;;;;;;;;;5051620;28;20363;-54
2023/09/14 07:39:07;;;;;;;12.73;3.65;;;;;;;;;;5050980;28;20080;-55
2023/09/14 07:41:32;;;;;;;14.10;3.88;;;;;;;;;;5051279;28;20410;-57
2023/09/14 07:43:58;;;;;;;7.38;3.40;;;;;;;;;;5052042;28;20040;-55
2023/09/14 07:46:23;;;;;;;8.35;3.35;;;;;;;;;;5053745;28;20039;-55
2023/09/14 07:48:48;;;;;;;10.10;3.40;;;;;;;;;;5055273;28;20037;-54
2023/09/14 07:51:14;;;;;;;11.65;3.08;;;;;;;;;;5054611;28;20061;-54
2023/09/14 07:53:39;;;;;;;9.68;3.40;;;;;;;;;;5054749;28;20051;-52
2023/09/14 07:56:05;;;;;;;11.50;3.92;;;;;;;;;;5054465;28;20041;-56
2023/09/14 07:58:30;;;;;;;10.18;3.78;;;;;;;;;;5055206;28;20355;-55
2023/09/14 08:00:55;;;;;;;10.98;4.00;;;;;;;;;;5054468;28;20385;-52
2023/09/14 08:03:21;;;;;;;8.40;3.80;;;;;;;;;;5053413;28;20456;-56
2023/09/14 08:05:46;;;;;;;14.10;4.07;;;;;;;;;;5054812;28;20517;-56
2023/09/14 08:08:12;;;;;;;8.98;3.03;;;;;;;;;;5053114;28;20033;-56
2023/09/14 08:10:37;;;;;;;8.98;2.97;;;;;;;;;;5055389;28;20377;-55
2023/09/14 08:13:03;;;;;;;9.23;3.10;;;;;;;;;;5054118;28;20071;-57
2023/09/14 08:15:29;;;;;;;7.95;2.83;;;;;;;;;;5053575;28;20377;-56
2023/09/14 08:17:54;;;;;;;10.02;3.22;;;;;;;;;;5054175;28;20033;-57
2023/09/14 08:20:20;;;;;;;8.02;2.97;;;;;;;;;;5053433;28;20040;-55
2023/09/14 08:22:45;;;;;;;7.03;3.10;;;;;;;;;;5054647;28;20405;-59
2023/09/14 08:25:13;;;;;;;8.88;3.28;;;;;;;;;;5053557;28;20032;-56
2023/09/14 08:27:40;;;;;;;11.07;3.03;;;;;;;;;;5054594;28;20454;-56
2023/09/14 08:30:10;;;;;;;8.27;2.90;;;;;;;;;;5053676;28;20037;-55
2023/09/14 08:32:35;;;;;;;8.77;2.47;;;;;;;;;;5054252;28;20496;-55
2023/09/14 08:35:20;;;;;;;12.35;2.92;;;;;;;;;;5053724;28;20054;-57
2023/09/14 08:37:45;;;;;;;10.07;2.80;;;;;;;;;;5054428;28;20079;-57
2023/09/14 08:40:13;;;;;;;10.27;3.35;;;;;;;;;;5053722;28;20130;-56
2023/09/14 08:42:40;;;;;;;11.55;2.83;;;;;;;;;;5054104;28;20029;-55
2023/09/14 08:45:10;;;;;;;6.13;2.80;;;;;;;;;;5053784;28;20037;-56
2023/09/14 08:47:38;;;;;;;9.00;2.90;;;;;;;;;;5054498;28;20029;-56
2023/09/14 08:50:05;;;;;;;8.52;2.70;;;;;;;;;;5053542;28;20389;-55
2023/09/14 08:52:32;;;;;;;9.93;2.78;;;;;;;;;;5054201;28;20033;-56
2023/09/14 08:54:59;;;;;;;9.98;2.42;;;;;;;;;;5052736;28;20060;-54
2023/09/14 08:57:25;;;;;;;9.70;2.88;;;;;;;;;;5053812;28;20039;-53
2023/09/14 08:59:52;;;;;;;10.50;2.60;;;;;;;;;;5053858;28;20083;-57
2023/09/14 09:02:19;;;;;;;8.02;2.50;;;;;;;;;;5053232;28;20021;-56
2023/09/14 09:04:44;;;;;;;8.02;2.40;;;;;;;;;;5053519;28;20068;-55
2023/09/14 09:07:10;;;;;;;10.15;2.60;;;;;;;;;;5052891;28;20068;-56
2023/09/14 09:09:36;;;;;;;10.55;2.50;;;;;;;;;;5053732;28;20037;-52
2023/09/14 09:12:02;;;;;;;8.23;2.63;;;;;;;;;;5053111;28;20083;-56
2023/09/14 09:14:31;;;;;;;6.90;2.42;;;;;;;;;;5051895;28;20446;-56
2023/09/14 09:16:57;;;;;;;10.23;2.47;;;;;;;;;;5052865;28;20056;-57
2023/09/14 09:19:23;;;;;;;6.95;2.42;;;;;;;;;;5053339;28;20111;-57
2023/09/14 09:21:49;;;;;;;9.68;2.60;;;;;;;;;;5053507;28;20446;-58
2023/09/14 09:24:26;;;;;;;7.45;2.33;;;;;;;;;;5052612;28;20037;-56
2023/09/14 09:26:51;;;;;;;8.05;2.47;;;;;;;;;;5053372;28;20025;-56
2023/09/14 09:29:19;;;;;;;7.10;2.50;;;;;;;;;;5052299;28;20108;-54
2023/09/14 09:31:46;;;;;;;5.78;2.20;;;;;;;;;;5053201;28;20033;-56
2023/09/14 09:34:19;;;;;;;10.07;2.42;;;;;;;;;;5052185;28;20060;-53
2023/09/14 09:36:44;;;;;;;6.32;2.30;;;;;;;;;;5052823;28;20093;-56
2023/09/14 09:39:13;;;;;;;8.85;2.50;;;;;;;;;;5052478;28;20376;-55
2023/09/14 09:41:39;;;;;;;8.65;2.25;;;;;;;;;;5053243;28;20155;-52
2023/09/14 09:44:13;;;;;;;5.75;1.67;;;;;;;;;;5050603;28;20112;-53
2023/09/14 09:46:39;;;;;;;7.28;2.25;;;;;;;;;;5052809;28;20174;-58
2023/09/14 09:49:18;;;;;;;5.95;1.92;;;;;;;;;;5052291;28;20439;-56
2023/09/14 09:51:51;;;;;;;5.63;1.90;;;;;;;;;;5053051;28;20037;-54
2023/09/14 09:54:20;;;;;;;5.57;2.08;;;;;;;;;;5052032;28;20033;-57
2023/09/14 09:56:46;;;;;;;8.68;2.45;;;;;;;;;;5053223;28;20037;-57
2023/09/14 09:59:14;;;;;;;6.15;2.08;;;;;;;;;;5052918;28;20108;-58
2023/09/14 10:01:41;;;;;;;4.45;1.85;;;;;;;;;;5052644;28;20032;-57
2023/09/14 10:04:08;;;;;;;4.40;1.73;;;;;;;;;;5052006;28;20067;-58
2023/09/14 10:06:33;;;;;;;5.47;1.88;;;;;;;;;;5051094;28;20132;-57
2023/09/14 10:09:01;;;;;;;6.47;2.22;;;;;;;;;;5052267;28;20465;-57
2023/09/14 10:11:28;;;;;;;5.20;1.88;;;;;;;;;;5052665;28;20028;-57
2023/09/14 10:13:54;;;;;;;9.15;2.15;;;;;;;;;;5052449;28;20052;-57
2023/09/14 10:16:25;;;;;;;4.63;2.08;;;;;;;;;;5051279;28;20443;-56
2023/09/14 10:18:54;;;;;;;;;;;;;;;;;;5052900;28;20035;-56
2023/09/14 10:21:20;;;;;;;5.63;1.75;;;;;;;;;;5051801;28;20007;-58
2023/09/14 10:23:47;;;;;;;5.03;1.90;;;;;;;;;;5051049;28;20033;-60
2023/09/14 10:26:13;;;;;;;6.57;2.35;;;;;;;;;;5051613;28;20477;-56
2023/09/14 10:28:39;;;;;;;4.82;1.90;;;;;;;;;;5052076;28;20033;-57
2023/09/14 10:31:06;;;;;;;4.95;1.83;;;;;;;;;;5051605;28;20096;-57
2023/09/14 10:33:32;;;;;;;4.63;1.92;;;;;;;;;;5052277;28;20037;-55
2023/09/14 10:35:59;;;;;;;5.50;2.03;;;;;;;;;;5052118;28;20040;-52
2023/09/14 10:38:26;;;;;;;5.88;2.08;;;;;;;;;;5052215;28;20028;-52
2023/09/14 10:40:52;;;;;;;6.47;1.98;;;;;;;;;;5052299;28;20028;-53
2023/09/14 10:43:18;;;;;;;6.88;2.08;;;;;;;;;;5051151;28;20025;-52
2023/09/14 10:45:45;;;;;;;7.35;2.25;;;;;;;;;;5051396;28;20048;-53
2023/09/14 10:48:18;;;;;;;4.00;2.00;;;;;;;;;;5051249;28;20036;-54
2023/09/14 10:50:44;;;;;;;8.23;2.10;;;;;;;;;;5052047;28;20031;-53
2023/09/14 10:53:09;;;;;;;13.38;2.55;;;;;;;;;;5051376;28;20029;-52
2023/09/14 10:55:35;;;;;;;5.07;1.95;;;;;;;;;;5051837;28;20060;-55
2023/09/14 10:58:02;;;;;;;5.75;2.08;;;;;;;;;;5051855;28;20075;-57
2023/09/14 11:00:55;;;;;;;5.90;2.50;;;;;;;;;;5051788;28;20025;-52
2023/09/14 11:03:22;;;;;;;6.10;2.40;;;;;;;;;;5050770;28;20545;-52
2023/09/14 11:05:50;;;;;;;3.95;2.00;;;;;;;;;;5051559;28;20040;-56
2023/09/14 11:08:18;;;;;;;6.05;2.00;;;;;;;;;;5051208;28;20470;-55
2023/09/14 11:10:58;;;;;;;4.72;2.25;;;;;;;;;;5051312;28;20490;-55
2023/09/14 11:13:25;;;;;;;6.38;2.20;;;;;;;;;;5051021;28;20033;-52
2023/09/14 11:15:54;;;;;;;9.20;2.47;;;;;;;;;;5050928;28;20044;-54
2023/09/14 11:18:32;;;;;;;5.40;2.40;;;;;;;;;;5051296;28;20029;-57
2023/09/14 11:20:57;;;;;;;5.03;3.20;;;;;;;;;;5055446;28;20025;-56
2023/09/14 11:23:32;;;;;;;5.05;3.10;;;;;;;;;;5054904;28;20036;-52
2023/09/14 11:26:02;;;;;;;4.65;2.85;;;;;;;;;;5055329;28;20033;-57
2023/09/14 11:28:29;;;;;;;5.78;2.80;;;;;;;;;;5055022;28;20044;-52
2023/09/14 11:30:56;;;;;;;6.60;3.10;;;;;;;;;;5055578;28;20048;-55
2023/09/14 11:33:21;;;;;;;5.70;2.90;;;;;;;;;;5053638;28;20028;-56
2023/09/14 11:35:48;;;;;;;4.22;2.95;;;;;;;;;;5055279;28;20393;-54
2023/09/14 11:38:22;;;;;;;7.05;3.53;;;;;;;;;;5054691;28;20029;-56
2023/09/14 11:40:47;;;;;;;4.30;2.88;;;;;;;;;;5055682;28;20492;-53
2023/09/14 11:43:25;;;;;;;6.40;3.22;;;;;;;;;;5055169;28;20033;-56
2023/09/14 11:45:58;;;;;;;5.63;3.10;;;;;;;;;;5055355;28;20465;-56
2023/09/14 11:48:28;;;;;;;6.30;3.38;;;;;;;;;;5054764;28;20231;-54
2023/09/14 11:50:54;;;;;;;5.93;3.27;;;;;;;;;;5055295;28;20087;-56
2023/09/14 11:53:22;;;;;;;5.65;3.25;;;;;;;;;;5054653;28;20258;-56
2023/09/14 11:55:49;;;;;;;7.40;3.85;;;;;;;;;;5054897;28;20037;-55
2023/09/14 11:58:16;;;;;;;7.53;3.95;;;;;;;;;;5054385;28;20029;-56
2023/09/14 12:00:47;;;;;;;6.80;4.00;;;;;;;;;;5055174;28;20033;-57
2023/09/14 12:03:12;;;;;;;6.50;3.67;;;;;;;;;;5054519;28;20025;-54
2023/09/14 12:05:38;;;;;;;6.35;3.95;;;;;;;;;;5054627;28;20029;-56
2023/09/14 12:08:11;;;;;;;5.20;3.97;;;;;;;;;;5055212;28;20033;-55
2023/09/14 12:10:37;;;;;;;6.88;4.80;;;;;;;;;;5054937;28;20460;-56
2023/09/14 12:13:08;;;;;;;6.22;4.10;;;;;;;;;;5054669;28;20041;-56
2023/09/14 12:15:34;;;;;;;7.43;4.30;;;;;;;;;;5054265;28;20479;-53
2023/09/14 12:17:59;;;;;;;5.75;4.13;;;;;;;;;;5054688;28;20482;-53
2023/09/14 12:20:25;;;;;;;8.77;4.40;;;;;;;;;;5054125;28;20108;-53
2023/09/14 12:22:50;;;;;;;7.13;4.60;;;;;;;;;;5054628;28;20492;-55
2023/09/14 12:25:17;;;;;;;8.50;4.40;;;;;;;;;;5053932;28;20048;-53
2023/09/14 12:27:43;;;;;;;7.53;4.30;;;;;;;;;;5053206;28;20037;-55
2023/09/14 12:30:10;;;;;;;6.85;3.97;;;;;;;;;;5052438;28;20033;-55
2023/09/14 12:32:40;;;;;;;6.68;4.00;;;;;;;;;;5054497;28;20041;-57
2023/09/14 12:35:08;;;;;;;8.18;4.10;;;;;;;;;;5054378;28;20037;-57
2023/09/14 12:37:34;;;;;;;7.43;4.50;;;;;;;;;;5054627;28;20059;-55
2023/09/14 12:40:10;;;;;;;7.07;4.00;;;;;;;;;;5053038;28;20458;-53
2023/09/14 12:42:36;;;;;;;7.22;4.13;;;;;;;;;;5054311;28;20025;-55
2023/09/14 12:45:04;;;;;;;11.93;4.72;;;;;;;;;;5053946;28;20117;-55
2023/09/14 12:47:31;;;;;;;6.25;3.85;;;;;;;;;;5053313;28;20037;-56
2023/09/14 12:50:01;;;;;;;7.45;4.70;;;;;;;;;;5052726;28;20142;-54
2023/09/14 12:52:27;;;;;;;4.93;4.10;;;;;;;;;;5052112;28;20064;-57
2023/09/14 12:54:52;;;;;;;6.85;4.10;;;;;;;;;;5053629;28;20056;-55
2023/09/14 12:57:19;;;;;;;8.25;4.40;;;;;;;;;;5053223;28;20033;-53
2023/09/14 13:00:11;;;;;;;7.40;4.50;;;;;;;;;;5053924;28;20028;-56
2023/09/14 13:02:39;;;;;;;7.47;4.57;;;;;;;;;;5053746;28;20039;-57
2023/09/14 13:05:06;;;;;;;7.10;4.60;;;;;;;;;;5053578;28;20100;-57
2023/09/14 13:07:32;;;;;;;6.80;4.47;;;;;;;;;;5052970;28;20504;-55
2023/09/14 13:10:14;;;;;;;7.25;4.97;;;;;;;;;;5053603;28;20024;-55
2023/09/14 13:12:51;;;;;;;6.30;4.93;;;;;;;;;;5053594;28;20025;-55
2023/09/14 13:15:22;;;;;;;8.68;5.18;;;;;;;;;;5051601;28;20025;-57
2023/09/14 13:17:55;;;;;;;7.38;5.07;;;;;;;;;;5053627;28;20045;-55
2023/09/14 13:20:22;;;;;;;7.35;5.07;;;;;;;;;;5051713;28;20456;-57
2023/09/14 13:22:48;;;;;;;8.20;5.40;;;;;;;;;;5053451;28;20033;-57
2023/09/14 13:25:14;;;;;;;6.55;5.20;;;;;;;;;;5051359;28;20125;-57
2023/09/14 13:27:40;;;;;;;6.25;5.00;;;;;;;;;;5053617;28;20025;-57
2023/09/14 13:30:11;;;;;;;8.27;5.45;;;;;;;;;;5053469;28;20040;-56
2023/09/14 13:32:41;;;;;;;7.43;5.05;;;;;;;;;;5053627;28;20124;-57
2023/09/14 13:35:10;;;;;;;8.20;5.25;;;;;;;;;;5052846;28;20067;-56
2023/09/14 13:37:38;;;;;;;7.28;5.32;;;;;;;;;;5053389;28;20040;-55
2023/09/14 13:40:23;;;;;;;5.82;4.80;;;;;;;;;;5052958;28;20102;-56
2023/09/14 13:42:50;;;;;;;7.07;4.82;;;;;;;;;;5051826;28;20055;-53
2023/09/14 13:45:17;;;;;;;7.60;4.93;;;;;;;;;;5052146;28;20093;-57
2023/09/14 13:47:44;;;;;;;8.95;4.97;;;;;;;;;;5053061;28;20120;-57
2023/09/14 13:50:10;;;;;;;7.20;5.00;;;;;;;;;;5053003;28;20104;-57
2023/09/14 13:52:37;;;;;;;7.65;4.97;;;;;;;;;;5052206;28;20490;-55
2023/09/14 13:55:06;;;;;;;7.40;4.72;;;;;;;;;;5052729;28;20033;-55
2023/09/14 13:57:34;;;;;;;7.18;4.95;;;;;;;;;;5052188;28;20036;-54
2023/09/14 14:00:02;;;;;;;7.95;5.10;;;;;;;;;;5052659;28;20090;-56
2023/09/14 14:02:27;;;;;;;7.18;4.85;;;;;;;;;;5052026;28;20044;-54
2023/09/14 14:04:53;;;;;;;6.82;4.97;;;;;;;;;;5052555;28;20381;-52
2023/09/14 14:07:18;;;;;;;6.05;4.60;;;;;;;;;;5051578;28;20100;-51
2023/09/14 14:09:45;;;;;;;8.73;4.70;;;;;;;;;;5052472;28;20033;-53
2023/09/14 14:12:10;;;;;;;5.60;4.40;;;;;;;;;;5052710;28;20104;-54
2023/09/14 14:14:36;;;;;;;8.00;4.40;;;;;;;;;;5051558;28;20485;-54
2023/09/14 14:17:04;;;;;;;7.78;4.25;;;;;;;;;;5051986;28;20076;-54
2023/09/14 14:19:30;;;;;;;6.57;4.22;;;;;;;;;;5051112;28;20033;-52
2023/09/14 14:21:55;;;;;;;6.75;4.13;;;;;;;;;;5052049;28;20530;-53
2023/09/14 14:24:21;;;;;;;5.68;4.07;;;;;;;;;;5051423;28;20107;-54
2023/09/14 14:26:50;;;;;;;6.80;4.50;;;;;;;;;;5052080;28;20033;-55
2023/09/14 14:29:17;;;;;;;6.35;4.20;;;;;;;;;;5051613;28;20031;-55
2023/09/14 14:31:42;;;;;;;6.72;4.40;;;;;;;;;;5052515;28;20032;-54
2023/09/14 14:34:08;;;;;;;8.93;4.50;;;;;;;;;;5052270;28;20119;-55
2023/09/14 14:36:33;;;;;;;7.13;4.30;;;;;;;;;;5051366;28;20265;-53
2023/09/14 14:38:59;;;;;;;7.47;4.22;;;;;;;;;;5052034;28;20025;-51
2023/09/14 14:41:24;;;;;;;7.30;4.10;;;;;;;;;;5051375;28;20021;-54